createdAt,value
2019-04-20T20:03:01.655Z,43.55
2019-04-20T20:05:40.845Z,48.95
2019-04-20T20:08:19.211Z,49.78
2019-04-20T20:10:48.588Z,49.78
2019-04-20T20:13:25.979Z,50.86
2019-04-20T20:16:08.998Z,51.57
2019-04-20T20:18:51.021Z,51.90
2019-04-20T20:21:23.853Z,52.21
2019-04-20T20:23:47.933Z,52.58
2019-04-20T20:26:33.524Z,53.43
2019-04-20T20:29:12.058Z,54.36
2019-04-20T20:31:55.353Z,52.94
2019-04-20T20:34:24.593Z,52.68
2019-04-20T20:36:54.953Z,52.71
2019-04-20T20:39:29.539Z,52.60
2019-04-20T20:42:15.122Z,52.56
2019-04-20T20:44:45.265Z,52.35
2019-04-20T20:47:37.284Z,52.35
2019-04-20T20:50:15.565Z,52.31
2019-04-20T20:52:44.024Z,52.30
2019-04-20T20:55:12.105Z,52.40
2019-04-20T20:57:46.869Z,52.49
2019-04-20T21:00:27.996Z,52.85
2019-04-20T21:02:59.342Z,51.65
2019-04-20T21:05:29.372Z,52.63
2019-04-20T21:08:03.815Z,53.09
2019-04-20T21:10:42.339Z,53.22
2019-04-20T21:13:15.449Z,53.33
2019-04-20T21:15:56.905Z,53.43
2019-04-20T21:18:42.449Z,53.52
2019-04-20T21:21:17.108Z,53.56
2019-04-20T21:23:47.927Z,53.59
2019-04-20T21:26:23.105Z,53.69
2019-04-20T21:28:50.109Z,53.75
2019-04-20T21:31:28.839Z,53.92
2019-04-20T21:34:02.915Z,52.65
2019-04-20T21:36:36.950Z,53.49
2019-04-20T21:39:22.092Z,53.84
2019-04-20T21:41:56.042Z,53.95
2019-04-20T21:44:28.497Z,53.99
2019-04-20T21:47:01.994Z,54.17
2019-04-20T21:49:50.859Z,54.27
2019-04-20T21:52:23.206Z,54.32
2019-04-20T21:54:49.913Z,54.40
2019-04-20T21:57:24.238Z,54.47
2019-04-20T22:00:08.520Z,54.53
2019-04-20T22:02:44.663Z,54.62
2019-04-20T22:05:13.483Z,53.36
2019-04-20T22:07:48.468Z,54.07
2019-04-20T22:10:27.897Z,54.32
2019-04-20T22:13:01.398Z,54.52
2019-04-20T22:15:45.388Z,54.62
2019-04-20T22:18:17.720Z,54.70
2019-04-20T22:20:57.895Z,54.72
2019-04-20T22:23:43.401Z,54.76
2019-04-20T22:26:16.444Z,54.85
2019-04-20T22:28:36.218Z,54.91
2019-04-20T22:31:11.845Z,54.94
2019-04-20T22:33:47.371Z,55.03
2019-04-20T22:36:24.787Z,53.86
2019-04-20T22:39:18.720Z,54.45
2019-04-20T22:42:00.150Z,54.69
2019-04-20T22:44:34.340Z,54.74
2019-04-20T22:47:13.920Z,54.82
2019-04-20T22:50:05.480Z,54.82
2019-04-20T22:52:34.754Z,54.84
2019-04-20T22:55:20.996Z,54.89
2019-04-20T22:57:50.944Z,54.98
2019-04-20T23:00:21.718Z,55.02
2019-04-20T23:02:51.135Z,55.14
2019-04-20T23:05:26.877Z,54.48
2019-04-20T23:08:02.528Z,54.14
2019-04-20T23:10:39.975Z,54.57
2019-04-20T23:13:13.832Z,54.75
2019-04-20T23:15:53.116Z,54.81
2019-04-20T23:18:24.310Z,54.92
2019-04-20T23:21:02.722Z,54.96
2019-04-20T23:23:35.606Z,54.99
2019-04-20T23:26:16.865Z,55.13
2019-04-20T23:28:54.077Z,55.14
2019-04-20T23:31:28.611Z,55.16
2019-04-20T23:34:12.786Z,55.16
2019-04-20T23:36:43.829Z,54.18
2019-04-20T23:39:14.883Z,54.26
2019-04-20T23:41:56.691Z,54.63
2019-04-20T23:44:47.280Z,54.80
2019-04-20T23:47:29.965Z,54.92
2019-04-20T23:50:19.559Z,55.00
2019-04-20T23:53:05.566Z,55.09
2019-04-20T23:55:23.751Z,55.10
2019-04-20T23:58:03.197Z,55.12
